sensor_id;sensor_type;location;lat;lon;timestamp;pressure;altitude;pressure_sealevel;temperature;humidity
65384;BME280;51986;52.788;41.368;2023-01-29T00:01:35;99757.88;;;-9.08;53.88
65384;BME280;51986;52.788;41.368;2023-01-29T00:04:02;99727.91;;;-9.22;54.09
65384;BME280;51986;52.788;41.368;2023-01-29T00:06:29;99748.69;;;-8.99;53.47
65384;BME280;51986;52.788;41.368;2023-01-29T00:08:56;99736.97;;;-8.94;53.50
65384;BME280;51986;52.788;41.368;2023-01-29T00:11:23;99737.97;;;-9.01;53.45
65384;BME280;51986;52.788;41.368;2023-01-29T00:13:51;99723.06;;;-9.24;53.48
65384;BME280;51986;52.788;41.368;2023-01-29T00:16:18;99715.13;;;-9.28;54.27
65384;BME280;51986;52.788;41.368;2023-01-29T00:18:45;99712.41;;;-9.01;54.10
65384;BME280;51986;52.788;41.368;2023-01-29T00:21:14;99734.69;;;-8.86;53.20
65384;BME280;51986;52.788;41.368;2023-01-29T00:23:42;99734.66;;;-8.91;52.75
65384;BME280;51986;52.788;41.368;2023-01-29T00:26:09;99699.38;;;-8.89;52.81
65384;BME280;51986;52.788;41.368;2023-01-29T00:28:39;99712.59;;;-9.12;53.30
65384;BME280;51986;52.788;41.368;2023-01-29T00:31:11;99721.59;;;-9.05;53.84
65384;BME280;51986;52.788;41.368;2023-01-29T00:33:39;99735.19;;;-8.89;52.88
65384;BME280;51986;52.788;41.368;2023-01-29T00:36:09;99725.19;;;-8.95;53.58
65384;BME280;51986;52.788;41.368;2023-01-29T00:38:37;99711.38;;;-9.05;53.16
65384;BME280;51986;52.788;41.368;2023-01-29T00:41:10;99706.09;;;-9.45;53.61
65384;BME280;51986;52.788;41.368;2023-01-29T00:43:37;99697.13;;;-9.53;53.87
65384;BME280;51986;52.788;41.368;2023-01-29T00:46:04;99708.22;;;-9.22;53.88
65384;BME280;51986;52.788;41.368;2023-01-29T00:48:31;99720.75;;;-9.31;53.63
65384;BME280;51986;52.788;41.368;2023-01-29T00:50:58;99715.34;;;-9.34;53.61
65384;BME280;51986;52.788;41.368;2023-01-29T00:53:25;99677.78;;;-9.96;54.78
65384;BME280;51986;52.788;41.368;2023-01-29T00:55:52;99684.72;;;-9.92;55.46
65384;BME280;51986;52.788;41.368;2023-01-29T00:58:19;99692.78;;;-9.53;54.57
65384;BME280;51986;52.788;41.368;2023-01-29T01:00:50;99689.16;;;-9.67;55.11
65384;BME280;51986;52.788;41.368;2023-01-29T01:03:17;99708.31;;;-9.64;54.60
65384;BME280;51986;52.788;41.368;2023-01-29T01:05:46;99700.88;;;-10.13;55.32
65384;BME280;51986;52.788;41.368;2023-01-29T01:08:13;99680.34;;;-9.96;55.35
65384;BME280;51986;52.788;41.368;2023-01-29T01:10:41;99688.06;;;-9.86;54.77
65384;BME280;51986;52.788;41.368;2023-01-29T01:13:08;99664.03;;;-9.90;54.62
65384;BME280;51986;52.788;41.368;2023-01-29T01:15:37;99696.88;;;-10.04;55.03
65384;BME280;51986;52.788;41.368;2023-01-29T01:18:04;99676.88;;;-10.55;56.05
65384;BME280;51986;52.788;41.368;2023-01-29T01:20:34;99694.41;;;-10.31;55.99
65384;BME280;51986;52.788;41.368;2023-01-29T01:23:02;99658.59;;;-10.41;56.09
65384;BME280;51986;52.788;41.368;2023-01-29T01:25:29;99657.81;;;-10.05;55.16
65384;BME280;51986;52.788;41.368;2023-01-29T01:27:58;99651.69;;;-10.04;54.48
65384;BME280;51986;52.788;41.368;2023-01-29T01:30:24;99648.22;;;-9.92;54.36
65384;BME280;51986;52.788;41.368;2023-01-29T01:32:51;99633.38;;;-9.95;55.05
65384;BME280;51986;52.788;41.368;2023-01-29T01:35:19;99627.31;;;-9.74;54.24
65384;BME280;51986;52.788;41.368;2023-01-29T01:37:46;99658.94;;;-9.80;54.80
65384;BME280;51986;52.788;41.368;2023-01-29T01:40:21;99645.69;;;-9.77;54.53
65384;BME280;51986;52.788;41.368;2023-01-29T01:42:51;99665.59;;;-9.79;54.75
65384;BME280;51986;52.788;41.368;2023-01-29T01:45:28;99645.97;;;-9.79;54.55
65384;BME280;51986;52.788;41.368;2023-01-29T01:48:06;99636.84;;;-9.64;54.48
65384;BME280;51986;52.788;41.368;2023-01-29T01:53:21;99658.56;;;-9.52;53.84
65384;BME280;51986;52.788;41.368;2023-01-29T01:55:53;99648.88;;;-9.55;53.90
65384;BME280;51986;52.788;41.368;2023-01-29T01:58:26;99641.59;;;-9.88;55.10
65384;BME280;51986;52.788;41.368;2023-01-29T02:00:54;99652.66;;;-9.62;54.69
65384;BME280;51986;52.788;41.368;2023-01-29T02:03:23;99650.81;;;-9.72;54.20
65384;BME280;51986;52.788;41.368;2023-01-29T02:05:52;99661.22;;;-9.89;55.17
65384;BME280;51986;52.788;41.368;2023-01-29T02:08:34;99639.03;;;-9.83;54.27
65384;BME280;51986;52.788;41.368;2023-01-29T02:11:04;99623.19;;;-9.85;54.40
65384;BME280;51986;52.788;41.368;2023-01-29T02:13:31;99587.16;;;-10.04;54.40
65384;BME280;51986;52.788;41.368;2023-01-29T02:15:59;99659.00;;;-9.70;54.78
65384;BME280;51986;52.788;41.368;2023-01-29T02:18:25;99600.50;;;-9.87;54.17
65384;BME280;51986;52.788;41.368;2023-01-29T02:21:32;99615.03;;;-9.92;54.76
65384;BME280;51986;52.788;41.368;2023-01-29T02:27:32;99618.63;;;-9.78;54.33
65384;BME280;51986;52.788;41.368;2023-01-29T02:30:22;99602.28;;;-9.87;54.41
65384;BME280;51986;52.788;41.368;2023-01-29T02:35:43;99600.75;;;-9.83;54.51
65384;BME280;51986;52.788;41.368;2023-01-29T02:40:57;99601.22;;;-9.96;54.42
65384;BME280;51986;52.788;41.368;2023-01-29T02:43:49;99594.19;;;-9.69;53.75
65384;BME280;51986;52.788;41.368;2023-01-29T02:49:36;99569.16;;;-9.57;53.50
65384;BME280;51986;52.788;41.368;2023-01-29T02:52:37;99586.44;;;-9.79;53.88
65384;BME280;51986;52.788;41.368;2023-01-29T02:55:14;99578.56;;;-9.78;54.13
65384;BME280;51986;52.788;41.368;2023-01-29T02:57:45;99582.59;;;-9.97;53.66
65384;BME280;51986;52.788;41.368;2023-01-29T03:00:19;99573.19;;;-9.76;53.32
65384;BME280;51986;52.788;41.368;2023-01-29T03:02:56;99600.81;;;-9.68;53.25
65384;BME280;51986;52.788;41.368;2023-01-29T03:05:30;99591.88;;;-9.60;52.87
65384;BME280;51986;52.788;41.368;2023-01-29T03:08:05;99587.50;;;-9.70;52.66
65384;BME280;51986;52.788;41.368;2023-01-29T03:10:39;99572.03;;;-10.16;53.38
65384;BME280;51986;52.788;41.368;2023-01-29T03:16:31;99605.75;;;-10.09;54.26
65384;BME280;51986;52.788;41.368;2023-01-29T03:19:13;99580.28;;;-10.46;54.83
65384;BME280;51986;52.788;41.368;2023-01-29T03:21:44;99587.31;;;-10.26;53.96
65384;BME280;51986;52.788;41.368;2023-01-29T03:24:20;99589.97;;;-10.00;52.93
65384;BME280;51986;52.788;41.368;2023-01-29T03:26:50;99573.53;;;-10.25;53.06
65384;BME280;51986;52.788;41.368;2023-01-29T03:29:19;99587.53;;;-10.27;53.75
65384;BME280;51986;52.788;41.368;2023-01-29T03:31:47;99580.22;;;-10.09;53.26
65384;BME280;51986;52.788;41.368;2023-01-29T03:34:17;99579.34;;;-10.72;54.01
65384;BME280;51986;52.788;41.368;2023-01-29T03:36:56;99585.16;;;-10.76;54.67
65384;BME280;51986;52.788;41.368;2023-01-29T03:39:27;99572.69;;;-10.78;54.19
65384;BME280;51986;52.788;41.368;2023-01-29T03:45:46;99593.13;;;-10.68;54.10
65384;BME280;51986;52.788;41.368;2023-01-29T04:01:54;99614.31;;;-10.30;53.36
65384;BME280;51986;52.788;41.368;2023-01-29T04:04:26;99601.03;;;-10.27;53.00
65384;BME280;51986;52.788;41.368;2023-01-29T04:07:00;99610.06;;;-10.14;54.05
65384;BME280;51986;52.788;41.368;2023-01-29T04:10:23;99631.03;;;-10.07;53.61
65384;BME280;51986;52.788;41.368;2023-01-29T04:12:27;99647.13;;;-10.01;52.84
65384;BME280;51986;52.788;41.368;2023-01-29T04:14:58;99615.03;;;-9.92;52.76
65384;BME280;51986;52.788;41.368;2023-01-29T04:17:33;99595.50;;;-10.14;52.65
65384;BME280;51986;52.788;41.368;2023-01-29T04:20:11;99624.19;;;-9.96;52.35
65384;BME280;51986;52.788;41.368;2023-01-29T04:22:45;99621.56;;;-10.12;52.65
65384;BME280;51986;52.788;41.368;2023-01-29T04:25:15;99601.25;;;-9.91;53.07
65384;BME280;51986;52.788;41.368;2023-01-29T04:38:32;99607.22;;;-9.55;52.26
65384;BME280;51986;52.788;41.368;2023-01-29T04:41:23;99609.03;;;-9.45;52.16
65384;BME280;51986;52.788;41.368;2023-01-29T04:52:01;99614.22;;;-9.98;52.41
65384;BME280;51986;52.788;41.368;2023-01-29T04:59:52;99619.97;;;-9.60;51.88
65384;BME280;51986;52.788;41.368;2023-01-29T05:02:23;99627.66;;;-9.50;51.41
65384;BME280;51986;52.788;41.368;2023-01-29T05:04:53;99618.47;;;-9.56;51.46
65384;BME280;51986;52.788;41.368;2023-01-29T05:07:23;99579.31;;;-9.92;51.92
65384;BME280;51986;52.788;41.368;2023-01-29T05:09:51;99617.72;;;-9.52;51.37
65384;BME280;51986;52.788;41.368;2023-01-29T05:12:19;99580.41;;;-9.58;51.27
65384;BME280;51986;52.788;41.368;2023-01-29T05:14:48;99592.16;;;-9.57;51.28
65384;BME280;51986;52.788;41.368;2023-01-29T05:17:18;99590.66;;;-9.42;51.15
65384;BME280;51986;52.788;41.368;2023-01-29T05:19:46;99571.25;;;-9.48;50.93
65384;BME280;51986;52.788;41.368;2023-01-29T05:22:16;99572.75;;;-9.58;50.28
65384;BME280;51986;52.788;41.368;2023-01-29T05:24:43;99577.25;;;-9.90;50.62
65384;BME280;51986;52.788;41.368;2023-01-29T05:27:17;99564.03;;;-9.72;50.57
65384;BME280;51986;52.788;41.368;2023-01-29T05:29:46;99567.09;;;-9.65;50.85
65384;BME280;51986;52.788;41.368;2023-01-29T05:32:14;99588.34;;;-9.59;50.79
65384;BME280;51986;52.788;41.368;2023-01-29T05:34:41;99555.59;;;-9.78;50.40
65384;BME280;51986;52.788;41.368;2023-01-29T05:37:08;99587.00;;;-9.77;50.98
65384;BME280;51986;52.788;41.368;2023-01-29T05:39:36;99601.09;;;-9.59;50.61
65384;BME280;51986;52.788;41.368;2023-01-29T05:42:03;99580.66;;;-9.64;50.48
65384;BME280;51986;52.788;41.368;2023-01-29T05:44:30;99581.94;;;-9.62;50.92
65384;BME280;51986;52.788;41.368;2023-01-29T05:46:57;99598.78;;;-9.61;50.55
65384;BME280;51986;52.788;41.368;2023-01-29T05:49:24;99578.59;;;-9.62;50.53
65384;BME280;51986;52.788;41.368;2023-01-29T05:51:51;99567.66;;;-9.53;50.08
65384;BME280;51986;52.788;41.368;2023-01-29T05:54:18;99629.44;;;-9.51;50.55
65384;BME280;51986;52.788;41.368;2023-01-29T05:56:45;99558.97;;;-9.52;50.32
65384;BME280;51986;52.788;41.368;2023-01-29T05:59:14;99588.63;;;-9.40;49.30
65384;BME280;51986;52.788;41.368;2023-01-29T06:01:41;99567.19;;;-9.39;49.45
65384;BME280;51986;52.788;41.368;2023-01-29T06:04:08;99573.31;;;-9.40;49.75
65384;BME280;51986;52.788;41.368;2023-01-29T06:06:35;99576.03;;;-9.67;49.85
65384;BME280;51986;52.788;41.368;2023-01-29T06:09:02;99564.81;;;-9.61;49.65
65384;BME280;51986;52.788;41.368;2023-01-29T06:11:29;99572.75;;;-9.53;49.40
65384;BME280;51986;52.788;41.368;2023-01-29T06:13:56;99553.13;;;-9.42;49.01
65384;BME280;51986;52.788;41.368;2023-01-29T06:16:23;99551.84;;;-9.49;49.25
65384;BME280;51986;52.788;41.368;2023-01-29T06:18:51;99561.06;;;-9.33;48.89
65384;BME280;51986;52.788;41.368;2023-01-29T06:21:18;99566.44;;;-9.25;48.83
65384;BME280;51986;52.788;41.368;2023-01-29T06:23:45;99544.69;;;-9.42;48.80
65384;BME280;51986;52.788;41.368;2023-01-29T06:26:14;99543.72;;;-8.90;48.26
65384;BME280;51986;52.788;41.368;2023-01-29T06:28:41;99556.75;;;-8.87;48.37
65384;BME280;51986;52.788;41.368;2023-01-29T06:31:09;99554.44;;;-8.93;47.55
65384;BME280;51986;52.788;41.368;2023-01-29T06:33:57;99540.09;;;-8.64;46.99
65384;BME280;51986;52.788;41.368;2023-01-29T06:36:24;99559.28;;;-8.56;47.07
65384;BME280;51986;52.788;41.368;2023-01-29T06:38:51;99547.47;;;-8.42;46.94
65384;BME280;51986;52.788;41.368;2023-01-29T06:41:18;99529.81;;;-8.38;46.31
65384;BME280;51986;52.788;41.368;2023-01-29T06:43:45;99544.59;;;-8.15;46.76
65384;BME280;51986;52.788;41.368;2023-01-29T06:46:13;99523.78;;;-7.98;46.91
65384;BME280;51986;52.788;41.368;2023-01-29T06:48:40;99528.59;;;-7.81;46.93
65384;BME280;51986;52.788;41.368;2023-01-29T06:51:09;99557.38;;;-7.55;46.33
65384;BME280;51986;52.788;41.368;2023-01-29T06:53:37;99515.19;;;-7.68;46.92
65384;BME280;51986;52.788;41.368;2023-01-29T06:56:05;99524.69;;;-7.29;46.73
65384;BME280;51986;52.788;41.368;2023-01-29T06:58:36;99521.09;;;-7.33;46.60
65384;BME280;51986;52.788;41.368;2023-01-29T07:01:11;99528.00;;;-7.29;46.93
65384;BME280;51986;52.788;41.368;2023-01-29T07:03:58;99534.66;;;-7.28;47.62
65384;BME280;51986;52.788;41.368;2023-01-29T07:06:27;99498.56;;;-7.02;46.42
65384;BME280;51986;52.788;41.368;2023-01-29T07:08:54;99536.59;;;-6.80;47.26
65384;BME280;51986;52.788;41.368;2023-01-29T07:11:21;99522.63;;;-6.69;45.88
65384;BME280;51986;52.788;41.368;2023-01-29T07:13:48;99537.13;;;-6.54;46.34
65384;BME280;51986;52.788;41.368;2023-01-29T07:16:15;99531.94;;;-6.49;45.93
65384;BME280;51986;52.788;41.368;2023-01-29T07:18:42;99513.91;;;-6.44;45.66
65384;BME280;51986;52.788;41.368;2023-01-29T07:21:09;99515.44;;;-6.19;46.18
65384;BME280;51986;52.788;41.368;2023-01-29T07:23:36;99539.44;;;-6.05;46.32
65384;BME280;51986;52.788;41.368;2023-01-29T07:26:04;99493.75;;;-5.89;45.63
65384;BME280;51986;52.788;41.368;2023-01-29T07:28:36;99522.19;;;-5.80;45.62
65384;BME280;51986;52.788;41.368;2023-01-29T07:31:04;99511.19;;;-5.67;45.18
65384;BME280;51986;52.788;41.368;2023-01-29T07:33:31;99498.97;;;-5.75;45.24
65384;BME280;51986;52.788;41.368;2023-01-29T07:35:59;99492.50;;;-5.73;45.08
65384;BME280;51986;52.788;41.368;2023-01-29T07:38:26;99493.47;;;-5.69;45.32
65384;BME280;51986;52.788;41.368;2023-01-29T07:40:53;99506.13;;;-5.53;45.58
65384;BME280;51986;52.788;41.368;2023-01-29T07:43:20;99482.50;;;-5.37;45.13
65384;BME280;51986;52.788;41.368;2023-01-29T07:45:47;99475.00;;;-5.19;44.90
65384;BME280;51986;52.788;41.368;2023-01-29T07:48:14;99481.19;;;-5.20;45.50
65384;BME280;51986;52.788;41.368;2023-01-29T07:50:44;99476.34;;;-5.22;45.13
65384;BME280;51986;52.788;41.368;2023-01-29T07:53:15;99494.50;;;-4.99;44.96
65384;BME280;51986;52.788;41.368;2023-01-29T07:55:43;99500.16;;;-5.16;45.53
65384;BME280;51986;52.788;41.368;2023-01-29T07:58:11;99476.53;;;-5.70;45.75
65384;BME280;51986;52.788;41.368;2023-01-29T08:00:38;99493.09;;;-5.24;46.48
65384;BME280;51986;52.788;41.368;2023-01-29T08:03:13;99475.63;;;-5.08;45.56
65384;BME280;51986;52.788;41.368;2023-01-29T08:05:43;99493.50;;;-5.17;45.73
65384;BME280;51986;52.788;41.368;2023-01-29T08:08:15;99473.13;;;-5.14;46.27
65384;BME280;51986;52.788;41.368;2023-01-29T08:10:42;99468.34;;;-5.20;46.43
65384;BME280;51986;52.788;41.368;2023-01-29T08:13:09;99481.72;;;-4.91;45.99
65384;BME280;51986;52.788;41.368;2023-01-29T08:15:36;99479.84;;;-4.71;45.28
65384;BME280;51986;52.788;41.368;2023-01-29T08:18:05;99484.22;;;-4.72;45.32
65384;BME280;51986;52.788;41.368;2023-01-29T08:20:32;99476.69;;;-4.82;45.88
65384;BME280;51986;52.788;41.368;2023-01-29T08:23:06;99472.72;;;-4.47;45.53
65384;BME280;51986;52.788;41.368;2023-01-29T08:25:34;99463.28;;;-5.25;45.79
65384;BME280;51986;52.788;41.368;2023-01-29T08:28:03;99465.91;;;-4.98;45.28
65384;BME280;51986;52.788;41.368;2023-01-29T08:30:32;99464.00;;;-5.39;47.11
65384;BME280;51986;52.788;41.368;2023-01-29T08:33:00;99453.50;;;-5.23;46.02
65384;BME280;51986;52.788;41.368;2023-01-29T08:35:27;99444.09;;;-4.87;45.53
65384;BME280;51986;52.788;41.368;2023-01-29T08:37:56;99441.72;;;-4.83;44.75
65384;BME280;51986;52.788;41.368;2023-01-29T08:40:24;99451.84;;;-4.73;45.22
65384;BME280;51986;52.788;41.368;2023-01-29T08:42:51;99426.47;;;-4.93;45.59
65384;BME280;51986;52.788;41.368;2023-01-29T08:45:18;99395.16;;;-5.42;45.68
65384;BME280;51986;52.788;41.368;2023-01-29T08:47:49;99427.78;;;-5.23;46.11
65384;BME280;51986;52.788;41.368;2023-01-29T08:50:16;99410.59;;;-5.42;46.21
65384;BME280;51986;52.788;41.368;2023-01-29T08:52:44;99417.50;;;-5.56;47.01
65384;BME280;51986;52.788;41.368;2023-01-29T08:55:12;99397.44;;;-5.40;46.32
65384;BME280;51986;52.788;41.368;2023-01-29T08:57:39;99413.53;;;-5.34;46.37
65384;BME280;51986;52.788;41.368;2023-01-29T09:00:07;99390.97;;;-5.38;47.20
65384;BME280;51986;52.788;41.368;2023-01-29T09:02:37;99411.88;;;-5.12;46.23
65384;BME280;51986;52.788;41.368;2023-01-29T09:05:04;99387.38;;;-5.23;47.08
65384;BME280;51986;52.788;41.368;2023-01-29T09:07:31;99426.19;;;-4.92;46.92
65384;BME280;51986;52.788;41.368;2023-01-29T09:10:04;99390.06;;;-4.73;46.51
65384;BME280;51986;52.788;41.368;2023-01-29T09:12:31;99394.63;;;-4.56;45.78
65384;BME280;51986;52.788;41.368;2023-01-29T09:14:58;99367.97;;;-4.38;45.11
65384;BME280;51986;52.788;41.368;2023-01-29T09:17:25;99366.34;;;-4.34;45.16
65384;BME280;51986;52.788;41.368;2023-01-29T09:19:52;99382.28;;;-4.31;45.48
65384;BME280;51986;52.788;41.368;2023-01-29T09:22:19;99381.38;;;-4.49;45.68
65384;BME280;51986;52.788;41.368;2023-01-29T09:24:46;99364.25;;;-4.31;45.58
65384;BME280;51986;52.788;41.368;2023-01-29T09:27:13;99348.50;;;-4.66;46.64
65384;BME280;51986;52.788;41.368;2023-01-29T09:29:40;99381.22;;;-4.30;46.69
65384;BME280;51986;52.788;41.368;2023-01-29T09:32:07;99391.88;;;-4.23;46.30
65384;BME280;51986;52.788;41.368;2023-01-29T09:34:35;99385.75;;;-4.14;46.54
65384;BME280;51986;52.788;41.368;2023-01-29T09:37:02;99368.97;;;-4.11;46.20
65384;BME280;51986;52.788;41.368;2023-01-29T09:39:29;99366.66;;;-3.99;45.99
65384;BME280;51986;52.788;41.368;2023-01-29T09:45:05;99344.38;;;-3.72;45.47
65384;BME280;51986;52.788;41.368;2023-01-29T09:47:34;99333.81;;;-3.62;45.46
65384;BME280;51986;52.788;41.368;2023-01-29T09:50:06;99352.00;;;-4.12;45.66
65384;BME280;51986;52.788;41.368;2023-01-29T09:52:39;99362.06;;;-4.02;45.90
65384;BME280;51986;52.788;41.368;2023-01-29T09:55:27;99339.94;;;-4.03;45.97
65384;BME280;51986;52.788;41.368;2023-01-29T09:58:20;99366.03;;;-3.96;46.83
65384;BME280;51986;52.788;41.368;2023-01-29T10:01:31;99319.22;;;-3.98;46.12
65384;BME280;51986;52.788;41.368;2023-01-29T10:09:55;99349.34;;;-3.76;45.89
65384;BME280;51986;52.788;41.368;2023-01-29T10:15:45;99315.19;;;-4.04;47.04
65384;BME280;51986;52.788;41.368;2023-01-29T10:21:56;99314.50;;;-3.73;46.66
65384;BME280;51986;52.788;41.368;2023-01-29T10:24:38;99313.44;;;-3.72;46.91
65384;BME280;51986;52.788;41.368;2023-01-29T10:27:15;99307.06;;;-3.75;47.42
65384;BME280;51986;52.788;41.368;2023-01-29T10:29:44;99307.66;;;-3.78;47.68
65384;BME280;51986;52.788;41.368;2023-01-29T10:32:17;99292.19;;;-3.78;47.32
65384;BME280;51986;52.788;41.368;2023-01-29T10:34:55;99305.41;;;-3.40;46.81
65384;BME280;51986;52.788;41.368;2023-01-29T10:37:39;99299.81;;;-3.24;46.84
65384;BME280;51986;52.788;41.368;2023-01-29T10:43:06;99275.63;;;-2.97;46.30
65384;BME280;51986;52.788;41.368;2023-01-29T10:45:48;99296.69;;;-3.04;46.53
65384;BME280;51986;52.788;41.368;2023-01-29T10:56:42;99318.59;;;-2.93;47.36
65384;BME280;51986;52.788;41.368;2023-01-29T11:01:59;99293.25;;;-2.73;46.97
65384;BME280;51986;52.788;41.368;2023-01-29T11:04:27;99296.47;;;-2.59;46.04
65384;BME280;51986;52.788;41.368;2023-01-29T11:06:58;99292.03;;;-2.67;46.27
65384;BME280;51986;52.788;41.368;2023-01-29T11:09:33;99259.84;;;-2.70;46.63
65384;BME280;51986;52.788;41.368;2023-01-29T11:14:50;99277.63;;;-2.51;46.58
65384;BME280;51986;52.788;41.368;2023-01-29T11:17:21;99263.34;;;-2.57;47.05
65384;BME280;51986;52.788;41.368;2023-01-29T11:19:50;99267.28;;;-2.51;47.00
65384;BME280;51986;52.788;41.368;2023-01-29T11:22:20;99266.22;;;-2.33;47.11
65384;BME280;51986;52.788;41.368;2023-01-29T11:25:15;99254.69;;;-2.53;47.27
65384;BME280;51986;52.788;41.368;2023-01-29T11:30:24;99286.28;;;-2.38;47.94
65384;BME280;51986;52.788;41.368;2023-01-29T11:35:31;99270.50;;;-2.54;48.14
65384;BME280;51986;52.788;41.368;2023-01-29T11:38:27;99267.88;;;-2.71;48.61
65384;BME280;51986;52.788;41.368;2023-01-29T11:41:14;99257.69;;;-2.94;48.99
65384;BME280;51986;52.788;41.368;2023-01-29T11:43:42;99256.03;;;-2.90;49.47
65384;BME280;51986;52.788;41.368;2023-01-29T11:46:14;99263.03;;;-2.82;49.42
65384;BME280;51986;52.788;41.368;2023-01-29T11:48:49;99267.59;;;-2.61;48.96
65384;BME280;51986;52.788;41.368;2023-01-29T11:51:24;99256.81;;;-2.63;48.63
65384;BME280;51986;52.788;41.368;2023-01-29T11:54:03;99272.00;;;-2.62;49.12
65384;BME280;51986;52.788;41.368;2023-01-29T11:56:42;99244.81;;;-2.76;49.13
65384;BME280;51986;52.788;41.368;2023-01-29T12:02:04;99265.63;;;-2.73;50.07
65384;BME280;51986;52.788;41.368;2023-01-29T12:04:32;99230.22;;;-2.81;49.76
65384;BME280;51986;52.788;41.368;2023-01-29T12:06:59;99250.72;;;-2.76;49.57
65384;BME280;51986;52.788;41.368;2023-01-29T12:09:29;99249.69;;;-2.84;50.79
65384;BME280;51986;52.788;41.368;2023-01-29T12:12:57;99246.00;;;-2.65;49.84
65384;BME280;51986;52.788;41.368;2023-01-29T12:15:21;99250.28;;;-2.87;49.80
65384;BME280;51986;52.788;41.368;2023-01-29T12:18:07;99250.41;;;-2.92;50.62
65384;BME280;51986;52.788;41.368;2023-01-29T12:20:43;99218.84;;;-2.80;50.16
65384;BME280;51986;52.788;41.368;2023-01-29T12:23:31;99211.69;;;-2.57;49.75
65384;BME280;51986;52.788;41.368;2023-01-29T12:26:14;99218.38;;;-2.73;50.21
65384;BME280;51986;52.788;41.368;2023-01-29T12:29:11;99209.38;;;-2.41;49.90
65384;BME280;51986;52.788;41.368;2023-01-29T12:34:49;99216.25;;;-2.63;49.76
65384;BME280;51986;52.788;41.368;2023-01-29T12:39:50;99219.38;;;-2.22;49.04
65384;BME280;51986;52.788;41.368;2023-01-29T12:42:20;99220.28;;;-2.18;49.28
65384;BME280;51986;52.788;41.368;2023-01-29T12:50:03;99204.19;;;-2.24;49.39
65384;BME280;51986;52.788;41.368;2023-01-29T12:52:41;99198.63;;;-2.52;49.75
65384;BME280;51986;52.788;41.368;2023-01-29T12:55:18;99203.03;;;-2.53;50.41
65384;BME280;51986;52.788;41.368;2023-01-29T13:00:26;99189.19;;;-2.48;49.89
65384;BME280;51986;52.788;41.368;2023-01-29T13:05:43;99183.75;;;-2.81;50.83
65384;BME280;51986;52.788;41.368;2023-01-29T13:10:48;99184.03;;;-2.65;50.48
65384;BME280;51986;52.788;41.368;2023-01-29T13:13:32;99172.06;;;-3.05;52.45
65384;BME280;51986;52.788;41.368;2023-01-29T13:16:06;99163.41;;;-3.09;52.54
65384;BME280;51986;52.788;41.368;2023-01-29T13:21:37;99184.50;;;-2.89;51.81
65384;BME280;51986;52.788;41.368;2023-01-29T13:24:17;99176.16;;;-2.95;52.75
65384;BME280;51986;52.788;41.368;2023-01-29T13:26:47;99188.31;;;-2.87;52.63
65384;BME280;51986;52.788;41.368;2023-01-29T13:29:27;99161.75;;;-2.96;53.16
65384;BME280;51986;52.788;41.368;2023-01-29T13:31:59;99175.84;;;-2.85;53.31
65384;BME280;51986;52.788;41.368;2023-01-29T13:34:34;99181.63;;;-2.70;53.22
65384;BME280;51986;52.788;41.368;2023-01-29T13:37:09;99174.94;;;-2.80;53.12
65384;BME280;51986;52.788;41.368;2023-01-29T13:39:39;99172.81;;;-3.04;55.01
65384;BME280;51986;52.788;41.368;2023-01-29T13:42:18;99181.47;;;-3.00;54.25
65384;BME280;51986;52.788;41.368;2023-01-29T13:44:49;99174.50;;;-2.99;54.65
65384;BME280;51986;52.788;41.368;2023-01-29T13:47:24;99163.88;;;-3.07;54.97
65384;BME280;51986;52.788;41.368;2023-01-29T13:50:19;99182.84;;;-2.76;54.54
65384;BME280;51986;52.788;41.368;2023-01-29T13:52:55;99164.94;;;-2.73;54.25
65384;BME280;51986;52.788;41.368;2023-01-29T13:55:38;99143.53;;;-2.73;54.70
65384;BME280;51986;52.788;41.368;2023-01-29T13:58:07;99171.28;;;-2.70;54.39
65384;BME280;51986;52.788;41.368;2023-01-29T14:05:58;99167.78;;;-2.48;54.62
65384;BME280;51986;52.788;41.368;2023-01-29T14:13:48;99162.59;;;-2.40;54.45
65384;BME280;51986;52.788;41.368;2023-01-29T14:19:01;99148.69;;;-2.18;53.85
65384;BME280;51986;52.788;41.368;2023-01-29T14:21:35;99135.75;;;-2.18;54.04
65384;BME280;51986;52.788;41.368;2023-01-29T14:24:17;99165.25;;;-2.10;54.25
65384;BME280;51986;52.788;41.368;2023-01-29T14:26:47;99152.94;;;-2.13;54.06
65384;BME280;51986;52.788;41.368;2023-01-29T14:29:26;99152.31;;;-2.10;54.48
65384;BME280;51986;52.788;41.368;2023-01-29T14:32:20;99171.75;;;-2.04;54.50
65384;BME280;51986;52.788;41.368;2023-01-29T14:34:50;99148.94;;;-2.02;54.05
65384;BME280;51986;52.788;41.368;2023-01-29T14:37:29;99154.88;;;-2.02;54.23
65384;BME280;51986;52.788;41.368;2023-01-29T14:40:12;99140.19;;;-1.89;54.34
65384;BME280;51986;52.788;41.368;2023-01-29T14:42:57;99130.41;;;-2.04;54.46
65384;BME280;51986;52.788;41.368;2023-01-29T14:45:26;99126.47;;;-2.10;55.01
65384;BME280;51986;52.788;41.368;2023-01-29T14:48:01;99134.41;;;-2.15;54.86
65384;BME280;51986;52.788;41.368;2023-01-29T14:53:15;99111.16;;;-2.24;55.60
65384;BME280;51986;52.788;41.368;2023-01-29T14:58:49;99103.97;;;-2.10;55.44
65384;BME280;51986;52.788;41.368;2023-01-29T15:04:19;99106.16;;;-1.91;55.20
65384;BME280;51986;52.788;41.368;2023-01-29T15:06:58;99105.00;;;-2.02;55.37
65384;BME280;51986;52.788;41.368;2023-01-29T15:15:04;99116.50;;;-1.91;56.41
65384;BME280;51986;52.788;41.368;2023-01-29T15:23:00;99119.00;;;-1.73;55.29
65384;BME280;51986;52.788;41.368;2023-01-29T15:25:36;99130.50;;;-1.62;54.94
65384;BME280;51986;52.788;41.368;2023-01-29T15:28:12;99126.25;;;-1.67;54.55
65384;BME280;51986;52.788;41.368;2023-01-29T15:30:39;99120.94;;;-1.70;55.04
65384;BME280;51986;52.788;41.368;2023-01-29T15:33:08;99113.84;;;-1.73;55.05
65384;BME280;51986;52.788;41.368;2023-01-29T15:35:39;99114.66;;;-1.61;55.03
65384;BME280;51986;52.788;41.368;2023-01-29T15:38:21;99115.31;;;-1.43;54.53
65384;BME280;51986;52.788;41.368;2023-01-29T15:43:25;99126.63;;;-1.56;55.18
65384;BME280;51986;52.788;41.368;2023-01-29T15:45:56;99105.84;;;-1.39;54.31
65384;BME280;51986;52.788;41.368;2023-01-29T15:48:37;99113.34;;;-1.46;53.86
65384;BME280;51986;52.788;41.368;2023-01-29T15:51:14;99155.31;;;-1.19;53.88
65384;BME280;51986;52.788;41.368;2023-01-29T15:53:53;99146.59;;;-1.15;53.99